createdAt,value
2022-10-20T00:00:40.108Z,98420.50
2022-10-20T00:03:06.448Z,98419.31
2022-10-20T00:05:32.680Z,98417.34
2022-10-20T00:07:58.933Z,98412.47
2022-10-20T00:10:25.127Z,98410.47
2022-10-20T00:12:51.395Z,98403.97
2022-10-20T00:15:17.664Z,98403.59
2022-10-20T00:17:43.853Z,98403.25
2022-10-20T00:20:10.287Z,98398.34
2022-10-20T00:22:36.806Z,98401.69
2022-10-20T00:25:03.180Z,98396.81
2022-10-20T00:27:29.420Z,98393.53
2022-10-20T00:29:55.692Z,98398.28
2022-10-20T00:32:21.913Z,98400.94
2022-10-20T00:34:48.439Z,98395.84
2022-10-20T00:37:14.759Z,98395.25
2022-10-20T00:39:41.204Z,98385.84
2022-10-20T00:42:07.416Z,98392.22
2022-10-20T00:44:33.766Z,98391.59
2022-10-20T00:47:00.389Z,98393.66
2022-10-20T00:49:26.622Z,98388.81
2022-10-20T00:51:52.921Z,98388.19
2022-10-20T00:54:19.311Z,98379.63
2022-10-20T00:59:27.415Z,98379.69
2022-10-20T01:01:54.015Z,98383.63
2022-10-20T01:04:20.321Z,98382.22
2022-10-20T01:06:46.544Z,98385.31
2022-10-20T01:09:12.853Z,98378.56
2022-10-20T01:11:39.335Z,98371.03
2022-10-20T01:14:05.581Z,98377.56
2022-10-20T01:16:31.814Z,98369.81
2022-10-20T01:18:58.074Z,98364.13
2022-10-20T01:21:24.483Z,98368.84
2022-10-20T01:23:50.655Z,98366.63
2022-10-20T01:26:16.865Z,98367.91
2022-10-20T01:28:43.102Z,98363.00
2022-10-20T01:31:09.290Z,98365.06
2022-10-20T01:33:35.766Z,98368.16
2022-10-20T01:36:02.203Z,98351.59
2022-10-20T01:38:28.449Z,98348.34
2022-10-20T01:40:54.942Z,98354.94
2022-10-20T01:43:21.309Z,98349.84
2022-10-20T01:45:47.572Z,98342.28
2022-10-20T01:48:13.765Z,98345.97
2022-10-20T01:50:40.209Z,98334.75
2022-10-20T01:53:06.460Z,98336.00
2022-10-20T01:55:32.713Z,98323.94
2022-10-20T01:57:58.957Z,98319.91
2022-10-20T02:00:25.311Z,98313.16
2022-10-20T02:02:51.663Z,98310.94
2022-10-20T02:05:17.856Z,98306.66
2022-10-20T02:07:44.102Z,98303.38
2022-10-20T02:10:10.754Z,98302.00
2022-10-20T02:12:37.092Z,98302.22
2022-10-20T02:15:11.614Z,98298.38
2022-10-20T02:17:39.091Z,98302.63
2022-10-20T02:20:05.372Z,98296.94
2022-10-20T02:22:31.678Z,98286.53
2022-10-20T02:24:58.066Z,98282.47
2022-10-20T02:27:24.242Z,98279.22
2022-10-20T02:29:50.462Z,98275.16
2022-10-20T02:32:16.708Z,98267.41
2022-10-20T02:34:43.669Z,98264.97
2022-10-20T02:37:09.884Z,98264.34
2022-10-20T02:39:36.164Z,98268.28
2022-10-20T02:42:02.413Z,98273.22
2022-10-20T02:44:28.634Z,98262.81
2022-10-20T02:46:54.848Z,98265.88
2022-10-20T02:49:21.029Z,98260.78
2022-10-20T02:51:47.364Z,98269.81
2022-10-20T02:54:13.647Z,98262.84
2022-10-20T02:56:39.841Z,98257.97
2022-10-20T02:59:06.186Z,98260.03
2022-10-20T03:01:32.468Z,98258.63
2022-10-20T03:03:58.830Z,98261.47
2022-10-20T03:06:25.061Z,98258.25
2022-10-20T03:08:54.421Z,98255.81
2022-10-20T03:11:20.672Z,98253.34
2022-10-20T03:13:46.950Z,98251.09
2022-10-20T03:16:13.315Z,98251.31
2022-10-20T03:18:39.686Z,98248.06
2022-10-20T03:21:05.904Z,98240.53
2022-10-20T03:23:32.213Z,98246.06
2022-10-20T03:25:58.515Z,98239.13
2022-10-20T03:28:24.764Z,98235.84
2022-10-20T03:30:50.974Z,98214.78
2022-10-20T03:33:17.171Z,98234.69
2022-10-20T03:35:43.399Z,98226.94
2022-10-20T03:38:09.672Z,98226.34
2022-10-20T03:40:36.021Z,98222.84
2022-10-20T03:43:02.347Z,98220.41
2022-10-20T03:45:28.813Z,98221.66
2022-10-20T03:47:56.573Z,98207.78
2022-10-20T03:50:22.832Z,98197.38
2022-10-20T03:52:49.019Z,98207.41
2022-10-20T03:55:15.219Z,98193.56
2022-10-20T03:57:41.753Z,98191.13
2022-10-20T04:00:08.024Z,98187.03
2022-10-20T04:02:34.794Z,98191.75
2022-10-20T04:05:01.270Z,98184.81
2022-10-20T04:07:27.582Z,98186.88
2022-10-20T04:09:53.934Z,98173.84
2022-10-20T04:12:20.136Z,98178.53
2022-10-20T04:14:46.263Z,98177.91
2022-10-20T04:17:12.460Z,98177.09
2022-10-20T04:19:38.744Z,98168.53
2022-10-20T04:22:04.981Z,98165.31
2022-10-20T04:24:31.204Z,98170.00
2022-10-20T04:26:57.427Z,98158.78
2022-10-20T04:29:23.675Z,98178.19
2022-10-20T04:31:49.878Z,98172.28
2022-10-20T04:34:16.119Z,98185.75
2022-10-20T04:36:42.405Z,98159.47
2022-10-20T04:39:08.681Z,98160.47
2022-10-20T04:41:35.079Z,98159.84
2022-10-20T04:44:01.423Z,98163.06
2022-10-20T04:46:27.631Z,98167.09
2022-10-20T04:48:53.831Z,98160.97
2022-10-20T04:51:20.041Z,98152.44
2022-10-20T04:53:46.249Z,98161.84
2022-10-20T04:56:12.486Z,98163.06
2022-10-20T04:58:38.716Z,98153.72
2022-10-20T05:01:04.998Z,98147.19
2022-10-20T05:03:31.216Z,98141.50
2022-10-20T05:05:58.571Z,98136.63
2022-10-20T05:08:24.905Z,98139.50
2022-10-20T05:10:51.187Z,98137.25
2022-10-20T05:13:17.920Z,98111.19
2022-10-20T05:15:44.147Z,98121.19
2022-10-20T05:18:10.343Z,98118.97
2022-10-20T05:20:41.238Z,98118.38
2022-10-20T05:23:17.591Z,98115.09
2022-10-20T05:25:43.804Z,98117.16
2022-10-20T05:28:10.270Z,98111.28
2022-10-20T05:30:36.522Z,98115.16
2022-10-20T05:33:02.742Z,98118.03
2022-10-20T05:35:29.009Z,98109.25
2022-10-20T05:37:55.223Z,98104.38
2022-10-20T05:40:21.558Z,98106.22
2022-10-20T05:42:47.864Z,98096.66
2022-10-20T05:45:14.086Z,98093.38
2022-10-20T05:47:40.521Z,98097.09
2022-10-20T05:50:06.771Z,98095.44
2022-10-20T05:52:32.984Z,98093.22
2022-10-20T05:54:59.553Z,98103.81
2022-10-20T05:57:26.156Z,98094.22
2022-10-20T05:59:52.414Z,98104.03
2022-10-20T06:02:18.624Z,98105.66
2022-10-20T06:04:44.880Z,98101.56
2022-10-20T06:07:11.090Z,98103.78
2022-10-20T06:09:37.309Z,98095.31
2022-10-20T06:12:03.635Z,98104.31
2022-10-20T06:14:29.965Z,98101.28
2022-10-20T06:16:56.176Z,98097.66
2022-10-20T06:19:22.425Z,98102.22
2022-10-20T06:21:49.550Z,98097.56
2022-10-20T06:24:16.019Z,98086.00
2022-10-20T06:26:43.404Z,98089.75
2022-10-20T06:29:09.721Z,98088.19
2022-10-20T06:31:36.123Z,98085.25
2022-10-20T06:34:02.349Z,98084.72
2022-10-20T06:36:28.588Z,98093.41
2022-10-20T06:38:55.223Z,98094.13
2022-10-20T06:41:21.431Z,98086.91
2022-10-20T06:43:47.622Z,98081.00
2022-10-20T06:46:13.892Z,98083.16
2022-10-20T06:48:40.160Z,98067.94
2022-10-20T06:51:06.454Z,98066.56
2022-10-20T06:53:32.690Z,98067.41
2022-10-20T06:55:58.891Z,98071.34
2022-10-20T06:58:25.159Z,98069.97
2022-10-20T07:00:51.376Z,98070.31
2022-10-20T07:03:17.818Z,98053.44
2022-10-20T07:05:44.066Z,98067.06
2022-10-20T07:08:10.291Z,98063.63
2022-10-20T07:10:36.519Z,98077.97
2022-10-20T07:13:02.703Z,98080.44
2022-10-20T07:15:28.911Z,98074.16
2022-10-20T07:17:55.169Z,98078.56
2022-10-20T07:20:21.403Z,98066.75
2022-10-20T07:22:47.703Z,98064.31
2022-10-20T07:25:13.922Z,98061.06
2022-10-20T07:27:40.165Z,98058.16
2022-10-20T07:30:07.549Z,98060.59
2022-10-20T07:32:35.798Z,98052.94
2022-10-20T07:35:04.611Z,98064.19
2022-10-20T07:37:30.864Z,98071.13
2022-10-20T07:39:58.569Z,98069.84
2022-10-20T07:42:24.848Z,98072.03
2022-10-20T07:44:51.111Z,98067.16
2022-10-20T07:47:17.368Z,98060.41
2022-10-20T07:49:44.587Z,98071.50
2022-10-20T07:52:11.442Z,98063.41
2022-10-20T07:54:37.732Z,98063.25
2022-10-20T07:57:04.043Z,98061.00
2022-10-20T07:59:30.281Z,98053.59
2022-10-20T08:01:59.540Z,98058.44
2022-10-20T08:04:26.743Z,98053.09
2022-10-20T08:06:53.011Z,98050.53
2022-10-20T08:09:19.272Z,98046.34
2022-10-20T08:11:45.525Z,98048.28
2022-10-20T08:14:11.953Z,98048.41
2022-10-20T08:16:45.897Z,98035.38
2022-10-20T08:21:52.328Z,98040.41
2022-10-20T08:24:18.512Z,98046.91
2022-10-20T08:26:44.734Z,98049.50
2022-10-20T08:29:11.422Z,98040.66
2022-10-20T08:31:37.647Z,98045.97
2022-10-20T08:34:05.267Z,98042.91
2022-10-20T08:36:32.798Z,98028.97
2022-10-20T08:39:03.519Z,98021.66
2022-10-20T08:41:43.358Z,98034.81
2022-10-20T08:44:15.397Z,98023.06
2022-10-20T08:46:41.818Z,98019.34
2022-10-20T08:49:08.254Z,98021.06
2022-10-20T08:51:34.577Z,98018.88
2022-10-20T08:54:00.819Z,98027.13
2022-10-20T08:56:29.213Z,98018.06
2022-10-20T08:58:55.541Z,98028.50
2022-10-20T09:01:21.901Z,98021.06
2022-10-20T09:03:48.311Z,98022.19
2022-10-20T09:06:14.914Z,98018.22
2022-10-20T09:08:41.521Z,98029.78
2022-10-20T09:11:08.910Z,98032.44
2022-10-20T09:13:37.143Z,98020.50
2022-10-20T09:16:03.553Z,98009.56
2022-10-20T09:18:29.898Z,98011.75
2022-10-20T09:20:56.305Z,97999.72
2022-10-20T09:23:40.113Z,97997.38
2022-10-20T09:26:07.607Z,98011.31
2022-10-20T09:28:42.893Z,98002.81
2022-10-20T09:31:15.516Z,97996.97
2022-10-20T09:33:41.814Z,97990.06
2022-10-20T09:36:08.224Z,97987.47
2022-10-20T09:38:34.661Z,97996.56
2022-10-20T09:41:02.193Z,97993.69
2022-10-20T09:43:28.437Z,97985.41
2022-10-20T09:45:54.963Z,97989.69
2022-10-20T09:48:23.661Z,97988.63
2022-10-20T09:50:49.855Z,97984.06
2022-10-20T09:53:16.195Z,97976.88
2022-10-20T09:55:42.576Z,97976.94
2022-10-20T09:58:08.949Z,97974.81
2022-10-20T10:00:37.861Z,97958.78
2022-10-20T10:03:04.655Z,97948.38
2022-10-20T10:05:32.829Z,97946.28
2022-10-20T10:07:59.114Z,97949.00
2022-10-20T10:10:25.322Z,97944.78
2022-10-20T10:12:51.530Z,97933.84
2022-10-20T10:15:17.760Z,97928.56
2022-10-20T10:17:43.964Z,97920.00
2022-10-20T10:20:10.201Z,97924.84
2022-10-20T10:22:36.658Z,97925.97
2022-10-20T10:25:03.125Z,97922.00
2022-10-20T10:27:29.627Z,97911.25
2022-10-20T10:29:55.924Z,97911.25
2022-10-20T10:32:31.527Z,97911.53
2022-10-20T10:34:58.256Z,97914.44
2022-10-20T10:37:24.507Z,97906.69
2022-10-20T10:39:50.800Z,97914.72
2022-10-20T10:42:17.131Z,97907.25
2022-10-20T10:44:43.583Z,97911.53
2022-10-20T10:47:09.792Z,97894.41
2022-10-20T10:49:36.023Z,97893.44
2022-10-20T10:52:02.240Z,97901.50
2022-10-20T10:54:28.467Z,97896.19
2022-10-20T10:56:54.653Z,97888.72
2022-10-20T10:59:20.848Z,97883.38
2022-10-20T11:01:47.028Z,97883.88
2022-10-20T11:04:13.256Z,97875.63
2022-10-20T11:06:39.582Z,97873.75
2022-10-20T11:09:05.947Z,97865.44
2022-10-20T11:11:32.249Z,97864.16
2022-10-20T11:13:58.469Z,97866.56
2022-10-20T11:16:24.746Z,97872.72
2022-10-20T11:18:50.988Z,97871.91
2022-10-20T11:21:17.203Z,97862.84
2022-10-20T11:23:43.407Z,97859.34
2022-10-20T11:26:10.665Z,97864.97
2022-10-20T11:28:36.858Z,97860.38
2022-10-20T11:31:03.643Z,97857.19
2022-10-20T11:33:30.162Z,97851.84
2022-10-20T11:35:56.410Z,97850.22
2022-10-20T11:38:22.611Z,97856.63
2022-10-20T11:40:48.852Z,97852.88
2022-10-20T11:43:15.133Z,97849.41
2022-10-20T11:45:41.383Z,97841.63
2022-10-20T11:48:07.772Z,97826.38
2022-10-20T11:50:34.218Z,97822.09
2022-10-20T11:53:00.438Z,97812.44
2022-10-20T11:55:26.672Z,97818.63
2022-10-20T11:57:53.841Z,97813.25
2022-10-20T12:00:21.523Z,97819.44
2022-10-20T12:02:48.034Z,97814.06
2022-10-20T12:05:14.344Z,97812.44
2022-10-20T12:07:40.575Z,97808.16
2022-10-20T12:10:06.943Z,97799.34
2022-10-20T12:12:34.969Z,97804.94
2022-10-20T12:15:01.487Z,97797.72
2022-10-20T12:17:29.965Z,97800.94
2022-10-20T12:19:56.575Z,97797.47
2022-10-20T12:22:23.151Z,97816.97
2022-10-20T12:24:49.482Z,97810.59
2022-10-20T12:27:15.738Z,97821.03
2022-10-20T12:29:41.980Z,97813.56
2022-10-20T12:32:08.374Z,97813.28
2022-10-20T12:34:34.676Z,97817.56
2022-10-20T12:39:27.460Z,97818.66
2022-10-20T12:41:53.682Z,97819.50
2022-10-20T12:44:19.989Z,97826.72
2022-10-20T12:46:46.467Z,97806.94
2022-10-20T12:49:12.814Z,97813.59
2022-10-20T12:51:39.430Z,97816.53
2022-10-20T12:54:06.466Z,97805.84
2022-10-20T12:56:32.879Z,97810.38
2022-10-20T12:58:59.329Z,97816.53
2022-10-20T13:01:25.672Z,97820.03
2022-10-20T13:03:52.097Z,97818.16
2022-10-20T13:06:18.428Z,97819.78
2022-10-20T13:08:44.869Z,97822.44
2022-10-20T13:11:11.188Z,97830.47
2022-10-20T13:13:37.606Z,97813.59
2022-10-20T13:16:04.019Z,97804.75
2022-10-20T13:18:30.267Z,97802.09
2022-10-20T13:20:56.513Z,97801.03
2022-10-20T13:23:22.746Z,97792.47
2022-10-20T13:25:49.037Z,97794.06
2022-10-20T13:28:15.767Z,97788.19
2022-10-20T13:30:42.065Z,97780.38
2022-10-20T13:33:33.190Z,97757.38
2022-10-20T13:35:54.774Z,97720.97
2022-10-20T13:38:21.125Z,97700.88
2022-10-20T13:40:47.476Z,97715.34
2022-10-20T13:43:13.721Z,97722.56
2022-10-20T13:45:39.980Z,97733.25
2022-10-20T13:48:06.450Z,97748.50
2022-10-20T13:50:32.707Z,97751.19
2022-10-20T13:52:59.174Z,97753.03
2022-10-20T13:55:25.503Z,97761.06
2022-10-20T13:57:55.126Z,97773.66
2022-10-20T14:00:21.913Z,97790.78
2022-10-20T14:02:48.172Z,97796.94
2022-10-20T14:05:14.822Z,97793.44
2022-10-20T14:07:41.315Z,97784.63
2022-10-20T14:10:07.525Z,97774.97
2022-10-20T14:12:33.839Z,97777.66
2022-10-20T14:15:02.137Z,97777.91
2022-10-20T14:17:28.615Z,97781.69
2022-10-20T14:19:55.126Z,97792.38
2022-10-20T14:22:21.507Z,97785.41
2022-10-20T14:24:48.834Z,97787.25
2022-10-20T14:27:15.121Z,97794.50
2022-10-20T14:29:41.559Z,97782.97
2022-10-20T14:32:08.050Z,97770.41
2022-10-20T14:34:34.447Z,97776.81
2022-10-20T14:37:02.704Z,97770.69
2022-10-20T14:39:29.156Z,97768.00
2022-10-20T14:41:55.911Z,97767.44
2022-10-20T14:44:30.978Z,97761.28
2022-10-20T14:46:58.230Z,97765.81
2022-10-20T14:49:24.602Z,97770.41
2022-10-20T14:51:51.002Z,97764.22
2022-10-20T14:54:17.342Z,97758.88
2022-10-20T14:56:43.574Z,97762.63
2022-10-20T14:59:10.013Z,97760.19
2022-10-20T15:01:36.364Z,97753.22
2022-10-20T15:04:03.049Z,97755.91
2022-10-20T15:06:34.427Z,97747.88
2022-10-20T15:09:00.814Z,97763.38
2022-10-20T15:11:27.265Z,97749.19
2022-10-20T15:13:53.738Z,97752.69
2022-10-20T15:16:20.130Z,97752.69
2022-10-20T15:18:49.534Z,97747.34
2022-10-20T15:21:15.785Z,97749.75
2022-10-20T15:23:42.072Z,97749.47
2022-10-20T15:26:08.319Z,97744.13
2022-10-20T15:28:34.564Z,97743.34
2022-10-20T15:31:00.781Z,97736.38
2022-10-20T15:33:27.014Z,97735.31
2022-10-20T15:35:53.432Z,97738.78
2022-10-20T15:38:19.846Z,97735.31
2022-10-20T15:40:47.130Z,97725.66
2022-10-20T15:43:14.809Z,97742.53
2022-10-20T15:45:41.633Z,97739.03
2022-10-20T15:48:08.011Z,97730.22
2022-10-20T15:50:34.282Z,97727.56
2022-10-20T15:53:00.536Z,97718.16
2022-10-20T15:55:26.953Z,97705.59
2022-10-20T15:57:53.223Z,97699.44
2022-10-20T16:00:19.513Z,97701.31
2022-10-20T16:02:45.706Z,97700.72
2022-10-20T16:05:11.942Z,97705.53
2022-10-20T16:07:38.468Z,97703.91
2022-10-20T16:10:05.339Z,97700.44
2022-10-20T16:12:31.845Z,97713.81
2022-10-20T16:14:58.052Z,97706.03
2022-10-20T16:20:14.736Z,97709.25
2022-10-20T16:22:40.935Z,97717.28
2022-10-20T16:25:08.449Z,97716.72
2022-10-20T16:27:34.808Z,97718.59
2022-10-20T16:30:01.235Z,97708.16
2022-10-20T16:32:31.333Z,97710.03
2022-10-20T16:35:00.721Z,97708.41
2022-10-20T16:37:26.990Z,97712.16
2022-10-20T16:39:53.523Z,97709.75
2022-10-20T16:42:19.814Z,97712.41
2022-10-20T16:44:46.042Z,97712.91
2022-10-20T16:47:12.337Z,97704.88
2022-10-20T16:49:38.627Z,97708.63
2022-10-20T16:52:04.822Z,97707.03
2022-10-20T16:54:31.082Z,97701.69
2022-10-20T16:56:59.373Z,97695.78
2022-10-20T16:59:25.714Z,97683.47
2022-10-20T17:01:51.929Z,97689.06
2022-10-20T17:04:18.402Z,97684.53
2022-10-20T17:06:44.697Z,97691.22
2022-10-20T17:09:11.404Z,97686.16
2022-10-20T17:11:37.773Z,97692.09
2022-10-20T17:14:03.992Z,97701.25
2022-10-20T17:16:30.301Z,97686.28
2022-10-20T17:18:58.704Z,97708.31
2022-10-20T17:21:25.262Z,97715.06
2022-10-20T17:23:51.771Z,97708.91
2022-10-20T17:26:18.099Z,97700.09
2022-10-20T17:28:45.903Z,97685.94
2022-10-20T17:34:10.786Z,97663.19
2022-10-20T17:36:50.313Z,97660.00
2022-10-20T17:41:57.583Z,97638.31
2022-10-20T17:44:23.993Z,97623.06
2022-10-20T17:46:50.287Z,97619.56
2022-10-20T17:49:16.649Z,97616.34
2022-10-20T17:51:42.961Z,97619.56
2022-10-20T17:54:09.334Z,97634.81
2022-10-20T17:56:35.967Z,97646.84
2022-10-20T17:59:02.625Z,97634.00
2022-10-20T18:01:29.451Z,97641.47
2022-10-20T18:03:55.786Z,97648.94
2022-10-20T18:06:22.133Z,97658.31
2022-10-20T18:08:48.577Z,97650.56
2022-10-20T18:11:14.970Z,97636.63
2022-10-20T18:13:41.247Z,97634.22
2022-10-20T18:16:07.546Z,97629.16
2022-10-20T18:18:33.979Z,97633.94
2022-10-20T18:21:00.316Z,97635.25
2022-10-20T18:23:26.647Z,97629.09
2022-10-20T18:25:53.033Z,97622.16
2022-10-20T18:28:19.403Z,97622.41
2022-10-20T18:30:45.710Z,97617.34
2022-10-20T18:33:11.958Z,97605.81
2022-10-20T18:35:38.467Z,97610.63
2022-10-20T18:38:04.890Z,97602.88
2022-10-20T18:40:31.231Z,97601.25
2022-10-20T18:42:57.639Z,97613.00
2022-10-20T18:45:25.982Z,97614.09
2022-10-20T18:47:52.480Z,97625.03
2022-10-20T18:50:19.022Z,97624.22
2022-10-20T18:52:45.351Z,97611.91
2022-10-20T18:55:11.883Z,97611.09
2022-10-20T18:57:38.454Z,97629.28
2022-10-20T19:00:05.207Z,97621.53
2022-10-20T19:02:31.513Z,97632.22
2022-10-20T19:04:58.083Z,97618.03
2022-10-20T19:07:26.021Z,97620.97
2022-10-20T19:09:55.478Z,97631.94
2022-10-20T19:12:22.692Z,97637.56
2022-10-20T19:14:49.054Z,97640.22
2022-10-20T19:17:15.700Z,97642.34
2022-10-20T19:19:42.178Z,97643.41
2022-10-20T19:22:08.681Z,97624.16
2022-10-20T19:24:35.167Z,97622.53
2022-10-20T19:27:25.100Z,97621.72
2022-10-20T19:29:47.885Z,97622.78
2022-10-20T19:32:14.286Z,97625.47
2022-10-20T19:34:40.778Z,97627.34
2022-10-20T19:37:07.128Z,97632.69
2022-10-20T19:39:33.589Z,97623.88
2022-10-20T19:42:00.005Z,97627.34
2022-10-20T19:44:26.343Z,97626.53
2022-10-20T19:46:52.633Z,97627.34
2022-10-20T19:49:19.013Z,97624.66
2022-10-20T19:51:45.306Z,97613.97
2022-10-20T19:54:11.664Z,97622.78
2022-10-20T19:56:37.924Z,97613.97
2022-10-20T19:59:04.617Z,97602.47
2022-10-20T20:01:32.063Z,97591.78
2022-10-20T20:03:58.460Z,97589.88
2022-10-20T20:06:25.082Z,97589.88
2022-10-20T20:08:51.640Z,97593.38
2022-10-20T20:11:18.200Z,97579.19
2022-10-20T20:13:44.523Z,97575.47
2022-10-20T20:16:10.918Z,97567.44
2022-10-20T20:18:37.266Z,97582.41
2022-10-20T20:21:03.736Z,97576.03
2022-10-20T20:23:47.354Z,97574.41
2022-10-20T20:26:16.431Z,97569.31
2022-10-20T20:28:42.762Z,97572.53
2022-10-20T20:31:09.086Z,97570.13
2022-10-20T20:33:35.551Z,97570.13
2022-10-20T20:36:01.951Z,97569.03
2022-10-20T20:38:28.378Z,97579.47
2022-10-20T20:40:54.992Z,97581.59
2022-10-20T20:43:21.308Z,97592.31
2022-10-20T20:45:47.629Z,97600.09
2022-10-20T20:48:13.969Z,97621.22
2022-10-20T20:50:40.332Z,97599.81
2022-10-20T20:53:06.776Z,97586.44
2022-10-20T20:55:33.524Z,97582.69
2022-10-20T20:57:59.920Z,97585.38
2022-10-20T21:00:26.270Z,97589.69
2022-10-20T21:02:52.654Z,97594.22
2022-10-20T21:05:21.790Z,97582.69
2022-10-20T21:07:48.751Z,97575.50
2022-10-20T21:10:15.099Z,97572.00
2022-10-20T21:12:41.713Z,97569.06
2022-10-20T21:15:08.331Z,97547.66
2022-10-20T21:17:34.832Z,97543.13
2022-10-20T21:20:01.126Z,97545.81
2022-10-20T21:22:27.561Z,97549.56
2022-10-20T21:24:53.836Z,97544.22
2022-10-20T21:27:21.350Z,97568.00
2022-10-20T21:29:47.782Z,97570.69
2022-10-20T21:32:14.106Z,97566.38
2022-10-20T21:34:40.368Z,97578.16
2022-10-20T21:37:06.793Z,97585.06
2022-10-20T21:39:33.229Z,97576.22
2022-10-20T21:41:59.654Z,97557.47
2022-10-20T21:44:25.974Z,97581.53
2022-10-20T21:46:52.249Z,97583.38
2022-10-20T21:49:18.629Z,97572.38
2022-10-20T21:51:44.934Z,97559.81
2022-10-20T21:54:11.276Z,97562.19
2022-10-20T21:56:37.648Z,97563.78
2022-10-20T21:59:04.093Z,97562.66
2022-10-20T22:01:30.516Z,97562.38
2022-10-20T22:03:57.198Z,97564.53
2022-10-20T22:09:02.982Z,97586.94
2022-10-20T22:11:29.287Z,97569.16
2022-10-20T22:13:55.536Z,97596.00
2022-10-20T22:16:21.815Z,97582.09
2022-10-20T22:18:48.140Z,97575.59
2022-10-20T22:21:15.029Z,97578.78
2022-10-20T22:23:41.546Z,97577.69
2022-10-20T22:26:07.909Z,97573.66
2022-10-20T22:28:34.170Z,97568.81
2022-10-20T22:33:27.696Z,97556.25
2022-10-20T22:35:54.460Z,97562.63
2022-10-20T22:38:20.803Z,97557.00
2022-10-20T22:40:47.083Z,97552.72
2022-10-20T22:43:13.592Z,97555.66
2022-10-20T22:45:39.838Z,97553.25
2022-10-20T22:48:06.519Z,97562.31
2022-10-20T22:50:32.856Z,97564.44
2022-10-20T22:52:59.177Z,97560.41
2022-10-20T22:55:25.564Z,97568.69
2022-10-20T22:57:51.914Z,97570.81
2022-10-20T23:00:18.246Z,97565.16
2022-10-20T23:02:44.606Z,97568.09
2022-10-20T23:05:11.373Z,97564.88
2022-10-20T23:07:38.042Z,97567.81
2022-10-20T23:10:04.483Z,97572.31
2022-10-20T23:12:31.123Z,97563.75
2022-10-20T23:14:57.932Z,97572.84
2022-10-20T23:17:24.467Z,97564.28
2022-10-20T23:19:50.897Z,97554.66
2022-10-20T23:22:17.351Z,97549.56
2022-10-20T23:24:43.666Z,97550.63
2022-10-20T23:27:09.994Z,97545.28
2022-10-20T23:29:36.387Z,97534.06
2022-10-20T23:32:02.727Z,97533.25
2022-10-20T23:34:29.191Z,97529.00
2022-10-20T23:36:55.515Z,97526.56
2022-10-20T23:39:22.178Z,97528.44
2022-10-20T23:41:48.763Z,97530.28
2022-10-20T23:44:15.372Z,97527.09
2022-10-20T23:46:41.960Z,97537.22
2022-10-20T23:49:08.362Z,97528.66
2022-10-20T23:51:36.134Z,97528.66
2022-10-20T23:54:02.655Z,97526.25
2022-10-20T23:56:29.114Z,97511.28
2022-10-20T23:58:55.399Z,97515.81
